E.r.tianping — CQGU — position and weather

sailwx.info

Track history (hours):
 
Tides and Currents Weather Stations Pressure Air Temp Water Temp Dewpoint Dewpoint Depression Visibility Wind Speed Wind Dir Waves Ship Positions

E.r.tianping

Last reported at 2018-Feb-12 17:09 UTC. Time now 2018-Feb-23 20:21 UTC.
Position N 09°07' W 079°48'.
Warning: this ship's position is 11 days out of date.

Length 334 m; draft 11.2 m.

Type: Ship (hazmat cat A). MMSI: 255805670.

Date/timePositionNaut miles runAvg speedWind from/ knotsBaromVisibWave heightAir tempDewpointWater temp
2018-Feb-12 17:09N 09°07' W 079°48'2 4.7
2018-Feb-12 16:48N 09°08' W 079°49'3 6.8
2018-Feb-12 16:22N 09°11' W 079°50'2 6.3
2018-Feb-12 16:00N 09°11' W 079°53'4 5.2
2018-Feb-12 15:17N 09°13' W 079°56'0 0.5
2018-Feb-12 15:00N 09°13' W 079°56'0 0.1
2018-Feb-12 14:30N 09°13' W 079°56'0 0.0
2018-Feb-12 14:00N 09°13' W 079°56'0 0.2
2018-Feb-12 12:27N 09°14' W 079°56'2 4.0
2018-Feb-12 12:00N 09°15' W 079°55'1 1.9
2018-Feb-12 11:29N 09°16' W 079°55'0 0.2
2018-Feb-12 11:00N 09°16' W 079°55'0 0.4
2018-Feb-12 10:30N 09°16' W 079°55'0 0.5
2018-Feb-12 10:00N 09°17' W 079°55'0 0.4
2018-Feb-12 09:29N 09°17' W 079°55'1 1.1
2018-Feb-12 09:00N 09°17' W 079°55'2 3.9
2018-Feb-12 08:30N 09°19' W 079°55'4 7.4
2018-Feb-12 08:00N 09°23' W 079°55'3 6.5
2018-Feb-12 07:30N 09°26' W 079°55'3 6.1
2018-Feb-12 06:58N 09°29' W 079°57'0 0.6
2018-Feb-12 06:29N 09°29' W 079°57'0 0.1
2018-Feb-12 05:50N 09°29' W 079°57'0 0.1
2018-Feb-12 05:29N 09°29' W 079°57'0 0.0
2018-Feb-12 04:56N 09°29' W 079°57'0 0.0
2018-Feb-12 04:20N 09°29' W 079°57'0 0.0
2018-Feb-12 03:44N 09°29' W 079°57'0 0.3
2018-Feb-12 03:26N 09°29' W 079°57'0 0.0
2018-Feb-12 02:17N 09°29' W 079°57'0 0.1
2018-Feb-12 01:50N 09°29' W 079°57'0 1.0
2018-Feb-12 01:30N 09°29' W 079°56'4 8.7
2018-Feb-12 01:00N 09°32' W 079°53'815.1
2018-Feb-12 00:29N 09°39' W 079°51'  
Track history (hours):
 
Tides and Currents Weather Stations Pressure Air Temp Water Temp Dewpoint Dewpoint Depression Visibility Wind Speed Wind Dir Waves Ship Positions

E.r.tianping

Last reported at 2018-Feb-12 17:09 UTC. Time now 2018-Feb-23 20:21 UTC.
Position N 09°07' W 079°48'.
Warning: this ship's position is 11 days out of date.

Length 334 m; draft 11.2 m.

Type: Ship (hazmat cat A). MMSI: 255805670.

Date/timePositionNaut miles runAvg speedWind from/ knotsBaromVisibWave heightAir tempDewpointWater temp
2018-Feb-12 17:09N 09°07' W 079°48'2 4.7
2018-Feb-12 16:48N 09°08' W 079°49'3 6.8
2018-Feb-12 16:22N 09°11' W 079°50'2 6.3
2018-Feb-12 16:00N 09°11' W 079°53'4 5.2
2018-Feb-12 15:17N 09°13' W 079°56'0 0.5
2018-Feb-12 15:00N 09°13' W 079°56'0 0.1
2018-Feb-12 14:30N 09°13' W 079°56'0 0.0
2018-Feb-12 14:00N 09°13' W 079°56'0 0.2
2018-Feb-12 12:27N 09°14' W 079°56'2 4.0
2018-Feb-12 12:00N 09°15' W 079°55'1 1.9
2018-Feb-12 11:29N 09°16' W 079°55'0 0.2
2018-Feb-12 11:00N 09°16' W 079°55'0 0.4
2018-Feb-12 10:30N 09°16' W 079°55'0 0.5
2018-Feb-12 10:00N 09°17' W 079°55'0 0.4
2018-Feb-12 09:29N 09°17' W 079°55'1 1.1
2018-Feb-12 09:00N 09°17' W 079°55'2 3.9
2018-Feb-12 08:30N 09°19' W 079°55'4 7.4
2018-Feb-12 08:00N 09°23' W 079°55'3 6.5
2018-Feb-12 07:30N 09°26' W 079°55'3 6.1
2018-Feb-12 06:58N 09°29' W 079°57'0 0.6
2018-Feb-12 06:29N 09°29' W 079°57'0 0.1
2018-Feb-12 05:50N 09°29' W 079°57'0 0.1
2018-Feb-12 05:29N 09°29' W 079°57'0 0.0
2018-Feb-12 04:56N 09°29' W 079°57'0 0.0
2018-Feb-12 04:20N 09°29' W 079°57'0 0.0
2018-Feb-12 03:44N 09°29' W 079°57'0 0.3
2018-Feb-12 03:26N 09°29' W 079°57'0 0.0
2018-Feb-12 02:17N 09°29' W 079°57'0 0.1
2018-Feb-12 01:50N 09°29' W 079°57'0 1.0
2018-Feb-12 01:30N 09°29' W 079°56'4 8.7
2018-Feb-12 01:00N 09°32' W 079°53'815.1
2018-Feb-12 00:29N 09°39' W 079°51'  

Dump ship's entire track history